Time;durP1;ratioP1;P1;durP2;ratioP2;P2;SDS_P1;SDS_P2;PMS_P1;PMS_P2;Temp;Humidity;BMP_temperature;BMP_pressure;BME280_temperature;BME280_humidity;BME280_pressure;Samples;Min_cycle;Max_cycle;Signal;HPM_P1;HPM_P2
2021/11/16 00:01:39;;;;;;;66.82;39.92;;;5.90;99.90;;;;;;5040318;28;20045;-51
2021/11/16 00:04:06;;;;;;;68.88;39.22;;;5.90;99.90;;;;;;5043524;28;20045;-52
2021/11/16 00:06:34;;;;;;;70.70;41.53;;;5.90;99.90;;;;;;5038411;28;20080;-48
2021/11/16 00:09:02;;;;;;;69.05;39.90;;;5.80;99.90;;;;;;5037594;28;20107;-50
2021/11/16 00:11:29;;;;;;;60.38;30.60;;;5.80;99.90;;;;;;5033923;28;20041;-50
2021/11/16 00:13:55;;;;;;;68.38;42.03;;;5.80;99.90;;;;;;5046354;28;20098;-51
2021/11/16 00:16:22;;;;;;;72.60;42.72;;;5.80;99.90;;;;;;5033619;28;20088;-50
2021/11/16 00:18:55;;;;;;;67.72;42.20;;;5.80;99.90;;;;;;5051558;28;20041;-49
2021/11/16 00:21:24;;;;;;;65.70;39.97;;;5.80;99.90;;;;;;5038031;28;20045;-52
2021/11/16 00:23:54;;;;;;;62.55;37.97;;;5.80;99.90;;;;;;5036127;28;20469;-49
2021/11/16 00:26:21;;;;;;;68.97;37.65;;;5.80;99.90;;;;;;5039291;28;20046;-49
2021/11/16 00:28:47;;;;;;;65.38;36.38;;;5.80;99.90;;;;;;5059557;28;20155;-49
2021/11/16 00:31:14;;;;;;;68.15;39.88;;;5.80;99.90;;;;;;5037595;28;20127;-49
2021/11/16 00:33:41;;;;;;;66.60;37.60;;;5.80;99.90;;;;;;5034940;28;20037;-50
2021/11/16 00:36:08;;;;;;;60.10;39.13;;;5.80;99.90;;;;;;5040176;28;20064;-49
2021/11/16 00:38:35;;;;;;;60.90;37.95;;;5.80;99.90;;;;;;5035477;28;20045;-52
2021/11/16 00:41:01;;;;;;;64.25;37.83;;;5.70;99.90;;;;;;5037339;28;20513;-49
2021/11/16 00:43:28;;;;;;;64.20;37.63;;;5.70;99.90;;;;;;5044520;28;20511;-48
2021/11/16 00:45:54;;;;;;;63.38;37.58;;;5.70;99.90;;;;;;5035481;28;20044;-50
2021/11/16 00:48:25;;;;;;;65.93;39.38;;;5.70;99.90;;;;;;5037526;28;20210;-49
2021/11/16 00:50:56;;;;;;;64.32;37.45;;;5.80;99.90;;;;;;5037085;28;20044;-54
2021/11/16 00:53:24;;;;;;;68.05;38.20;;;5.80;99.90;;;;;;5033078;28;20074;-52
2021/11/16 00:55:52;;;;;;;64.78;37.63;;;5.70;99.90;;;;;;5035840;28;20060;-49
2021/11/16 00:58:18;;;;;;;71.47;38.22;;;5.80;99.90;;;;;;5036758;28;20063;-50
2021/11/16 01:00:44;;;;;;;63.65;36.33;;;5.80;99.90;;;;;;5040973;28;20045;-49
2021/11/16 01:03:12;;;;;;;64.70;37.95;;;5.80;99.90;;;;;;5042501;28;20053;-49
2021/11/16 01:05:40;;;;;;;66.57;38.45;;;5.80;99.90;;;;;;5043624;28;20040;-50
2021/11/16 01:08:07;;;;;;;66.18;37.58;;;5.80;99.90;;;;;;5035172;28;20571;-51
2021/11/16 01:10:34;;;;;;;59.20;36.10;;;5.80;99.90;;;;;;5038088;28;20042;-50
2021/11/16 01:13:00;;;;;;;60.80;37.40;;;5.80;99.90;;;;;;5038467;28;20038;-49
2021/11/16 01:15:26;;;;;;;61.45;37.63;;;5.80;99.90;;;;;;5040094;28;20037;-52
2021/11/16 01:17:52;;;;;;;66.90;38.20;;;5.80;99.90;;;;;;5034244;28;20053;-49
2021/11/16 01:20:20;;;;;;;64.60;37.95;;;5.80;99.90;;;;;;5055464;28;20072;-49
2021/11/16 01:22:49;;;;;;;65.82;34.33;;;5.80;99.90;;;;;;5032686;28;20037;-53
2021/11/16 01:25:16;;;;;;;66.35;38.67;;;5.80;99.90;;;;;;5032966;28;20053;-50
2021/11/16 01:27:43;;;;;;;66.18;38.05;;;5.70;99.90;;;;;;5036479;28;20053;-48
2021/11/16 01:30:17;;;;;;;62.10;35.33;;;5.70;99.90;;;;;;5039052;28;20033;-48
2021/11/16 01:32:51;;;;;;;68.13;39.03;;;5.70;99.90;;;;;;5055452;28;20095;-49
2021/11/16 01:35:17;;;;;;;68.05;36.00;;;5.70;99.90;;;;;;5032737;28;20094;-52
2021/11/16 01:37:44;;;;;;;66.00;34.83;;;5.70;99.90;;;;;;5039778;28;20048;-52
2021/11/16 01:40:16;;;;;;;65.10;37.22;;;5.70;99.90;;;;;;5038188;28;20041;-53
2021/11/16 01:42:44;;;;;;;60.97;36.67;;;5.70;99.90;;;;;;5033458;28;20116;-52
2021/11/16 01:45:11;;;;;;;66.47;35.58;;;5.70;99.90;;;;;;5042031;28;20075;-50
2021/11/16 01:47:38;;;;;;;69.28;38.33;;;5.60;99.90;;;;;;5035539;28;20484;-49
2021/11/16 01:50:05;;;;;;;63.92;33.35;;;5.70;99.90;;;;;;5036674;28;20186;-49
2021/11/16 01:52:32;;;;;;;68.90;36.80;;;5.70;99.90;;;;;;5036445;28;20045;-49
2021/11/16 01:54:57;;;;;;;66.32;37.58;;;5.60;99.90;;;;;;5039644;28;20049;-51
2021/11/16 01:57:24;;;;;;;71.80;37.67;;;5.60;99.90;;;;;;5041258;28;20167;-49
2021/11/16 01:59:51;;;;;;;70.28;37.75;;;5.60;99.90;;;;;;5039478;28;20112;-51
2021/11/16 02:02:17;;;;;;;69.32;37.15;;;5.60;99.90;;;;;;5041825;28;20128;-52
2021/11/16 02:04:43;;;;;;;63.03;35.55;;;5.70;99.90;;;;;;5024996;28;20073;-52
2021/11/16 02:07:09;;;;;;;66.55;36.83;;;5.70;99.90;;;;;;5042011;28;20149;-49
2021/11/16 02:09:36;;;;;;;68.80;37.47;;;5.70;99.90;;;;;;5028912;28;20041;-52
2021/11/16 02:12:02;;;;;;;65.15;35.60;;;5.70;99.90;;;;;;5037272;28;20056;-53
2021/11/16 02:14:28;;;;;;;66.07;36.85;;;5.70;99.90;;;;;;5045225;28;20118;-47
2021/11/16 02:16:54;;;;;;;72.13;38.70;;;5.80;99.90;;;;;;5058485;28;20430;-51
2021/11/16 02:19:21;;;;;;;67.97;36.72;;;5.70;99.90;;;;;;5034555;28;20049;-52
2021/11/16 02:21:49;;;;;;;65.72;37.22;;;5.80;99.90;;;;;;5058154;28;20042;-52
2021/11/16 02:24:18;;;;;;;68.60;38.13;;;5.80;99.90;;;;;;5046943;28;20083;-53
2021/11/16 02:26:44;;;;;;;69.55;39.03;;;5.70;99.90;;;;;;5054744;28;20056;-53
2021/11/16 02:29:10;;;;;;;69.20;37.28;;;5.70;99.90;;;;;;5041158;28;20048;-52
2021/11/16 02:31:36;;;;;;;71.07;40.85;;;5.70;99.90;;;;;;5037922;28;20102;-50
2021/11/16 02:34:05;;;;;;;67.68;37.47;;;5.70;99.90;;;;;;5037485;28;20037;-50
2021/11/16 02:36:32;;;;;;;70.22;37.28;;;5.70;99.90;;;;;;5055638;28;20041;-50
2021/11/16 02:39:01;;;;;;;67.72;37.90;;;5.70;99.90;;;;;;5040318;28;20060;-52
2021/11/16 02:41:31;;;;;;;66.63;38.55;;;5.70;99.90;;;;;;5056155;28;20045;-50
2021/11/16 02:44:05;;;;;;;66.80;37.00;;;5.70;99.90;;;;;;5038672;28;20484;-52
2021/11/16 02:46:32;;;;;;;68.05;36.45;;;5.70;99.90;;;;;;5038090;28;20460;-52
2021/11/16 02:48:59;;;;;;;71.55;38.05;;;5.70;99.90;;;;;;5042718;28;20639;-52
2021/11/16 02:51:25;;;;;;;78.75;43.25;;;5.70;99.90;;;;;;5045979;28;20073;-53
2021/11/16 02:53:51;;;;;;;78.15;40.60;;;5.80;99.90;;;;;;5044623;28;20052;-49
2021/11/16 02:56:18;;;;;;;73.47;41.17;;;5.60;99.90;;;;;;5044798;28;20041;-53
2021/11/16 02:58:44;;;;;;;71.43;38.92;;;5.70;99.90;;;;;;5042512;28;20119;-51
2021/11/16 03:01:14;;;;;;;75.20;38.72;;;5.70;99.90;;;;;;5037712;28;20041;-48
2021/11/16 03:03:41;;;;;;;72.53;40.25;;;5.60;99.90;;;;;;5049099;28;20049;-48
2021/11/16 03:06:09;;;;;;;74.88;40.20;;;5.60;99.90;;;;;;5047983;28;20131;-53
2021/11/16 03:08:35;;;;;;;73.15;39.95;;;5.70;99.90;;;;;;5037259;28;20139;-53
2021/11/16 03:11:06;;;;;;;74.95;39.42;;;5.60;99.90;;;;;;5039481;28;20053;-51
2021/11/16 03:13:36;;;;;;;74.22;40.63;;;5.70;99.90;;;;;;5039648;28;20045;-51
2021/11/16 03:16:15;;;;;;;73.40;40.28;;;5.70;99.90;;;;;;5038596;28;20137;-52
2021/11/16 03:18:50;;;;;;;72.07;37.97;;;5.60;99.90;;;;;;5037522;28;20056;-52
2021/11/16 03:21:17;;;;;;;69.15;37.75;;;5.60;99.90;;;;;;5035927;28;20619;-50
2021/11/16 03:23:45;;;;;;;68.32;37.17;;;5.60;99.90;;;;;;5038929;28;20044;-49
2021/11/16 03:26:13;;;;;;;73.78;38.17;;;5.60;99.90;;;;;;5037467;28;20055;-49
2021/11/16 03:28:42;;;;;;;72.53;38.45;;;5.60;99.90;;;;;;5046621;28;20053;-51
2021/11/16 03:31:20;;;;;;;75.28;38.33;;;5.60;99.90;;;;;;5056407;28;20132;-50
2021/11/16 03:33:47;;;;;;;75.30;38.40;;;5.60;99.90;;;;;;5039355;28;20053;-50
2021/11/16 03:36:14;;;;;;;71.22;37.00;;;5.60;99.90;;;;;;5046456;28;20227;-48
2021/11/16 03:38:41;;;;;;;78.38;39.90;;;5.50;99.90;;;;;;5046062;28;20047;-48
2021/11/16 03:41:07;;;;;;;81.28;38.70;;;5.50;99.90;;;;;;5021291;28;20152;-49
2021/11/16 03:43:34;;;;;;;71.88;37.95;;;5.50;99.90;;;;;;5036450;28;20049;-53
2021/11/16 03:46:00;;;;;;;76.28;38.92;;;5.50;99.90;;;;;;5037678;28;20053;-51
2021/11/16 03:48:28;;;;;;;75.35;38.00;;;5.50;99.90;;;;;;5045881;28;20041;-54
2021/11/16 03:50:55;;;;;;;77.32;39.00;;;5.50;99.90;;;;;;5036992;28;20033;-52
2021/11/16 03:53:22;;;;;;;78.13;39.22;;;5.50;99.90;;;;;;5053640;28;20262;-51
2021/11/16 03:55:49;;;;;;;80.78;39.53;;;5.50;99.90;;;;;;5039994;28;20488;-49
2021/11/16 03:58:19;;;;;;;80.05;38.75;;;5.50;99.90;;;;;;5056016;28;20115;-49
2021/11/16 04:00:51;;;;;;;83.35;40.70;;;5.50;99.90;;;;;;5041823;28;20037;-51
2021/11/16 04:03:21;;;;;;;75.45;39.83;;;5.50;99.90;;;;;;5038057;28;20052;-52
2021/11/16 04:05:47;;;;;;;81.72;38.85;;;5.50;99.90;;;;;;5036538;28;20052;-52
2021/11/16 04:08:13;;;;;;;75.15;38.08;;;5.50;99.90;;;;;;5044317;28;20049;-54
2021/11/16 04:10:40;;;;;;;76.78;38.28;;;5.50;99.90;;;;;;5038736;28;20045;-53
2021/11/16 04:13:06;;;;;;;78.78;39.88;;;5.50;99.90;;;;;;5036025;28;20037;-50
2021/11/16 04:15:34;;;;;;;84.85;41.25;;;5.50;99.90;;;;;;5039011;28;20056;-55
2021/11/16 04:18:01;;;;;;;77.15;38.40;;;5.50;99.90;;;;;;5035661;28;20040;-51
2021/11/16 04:20:33;;;;;;;82.03;38.90;;;5.50;99.90;;;;;;5031036;28;20055;-50
2021/11/16 04:23:01;;;;;;;83.95;38.22;;;5.50;99.90;;;;;;5042938;28;20102;-50
2021/11/16 04:25:28;;;;;;;81.30;39.47;;;5.50;99.90;;;;;;5038886;28;20052;-53
2021/11/16 04:27:55;;;;;;;76.30;39.95;;;5.50;99.90;;;;;;5040334;28;20060;-52
2021/11/16 04:30:24;;;;;;;74.45;39.60;;;5.50;99.90;;;;;;5037200;28;20407;-50
2021/11/16 04:32:50;;;;;;;82.68;40.90;;;5.50;99.90;;;;;;5037092;28;20044;-52
2021/11/16 04:35:17;;;;;;;83.13;40.60;;;5.50;99.90;;;;;;5021593;28;20501;-49
2021/11/16 04:37:44;;;;;;;80.55;39.55;;;5.60;99.90;;;;;;5044610;28;20047;-52
2021/11/16 04:40:14;;;;;;;84.78;40.13;;;5.60;99.90;;;;;;5057746;28;20613;-53
2021/11/16 04:42:40;;;;;;;78.82;40.15;;;5.60;99.90;;;;;;5035868;28;20041;-49
2021/11/16 04:45:11;;;;;;;90.43;40.92;;;5.50;99.90;;;;;;5026015;28;20128;-50
2021/11/16 04:47:57;;;;;;;77.47;40.03;;;5.60;99.90;;;;;;5037541;28;20483;-50
2021/11/16 05:03:45;;;;;;;73.95;37.67;;;5.50;99.90;;;;;;5044690;28;20039;-49
2021/11/16 05:06:11;;;;;;;83.22;39.75;;;5.50;99.90;;;;;;5050173;28;20052;-50
2021/11/16 05:08:40;;;;;;;78.90;38.97;;;5.60;99.90;;;;;;5035911;28;20045;-48
2021/11/16 05:11:08;;;;;;;80.93;41.53;;;5.60;99.90;;;;;;5033430;28;20123;-54
2021/11/16 05:13:34;;;;;;;75.13;39.15;;;5.60;99.90;;;;;;5017994;28;20037;-53
2021/11/16 05:16:00;;;;;;;80.55;39.72;;;5.60;99.90;;;;;;5042552;28;20041;-53
2021/11/16 05:18:26;;;;;;;79.90;38.30;;;5.50;99.90;;;;;;5039548;28;20041;-54
2021/11/16 05:20:52;;;;;;;77.35;38.58;;;5.50;99.90;;;;;;5046648;28;20045;-52
2021/11/16 05:23:19;;;;;;;78.40;38.90;;;5.50;99.90;;;;;;5040054;28;20048;-50
2021/11/16 05:25:52;;;;;;;80.97;41.30;;;5.50;99.90;;;;;;5035537;28;20110;-50
2021/11/16 05:28:20;;;;;;;82.70;40.05;;;5.40;99.90;;;;;;5040030;28;20052;-53
2021/11/16 05:30:47;;;;;;;86.53;41.47;;;5.40;99.90;;;;;;5038938;28;20038;-48
2021/11/16 05:33:14;;;;;;;82.60;39.83;;;5.40;99.90;;;;;;5020357;28;20052;-49
2021/11/16 05:35:40;;;;;;;85.57;41.95;;;5.40;99.90;;;;;;5040354;28;20041;-50
2021/11/16 05:38:07;;;;;;;81.18;38.45;;;5.40;99.90;;;;;;5040420;28;20458;-52
2021/11/16 05:40:33;;;;;;;80.47;41.63;;;5.40;99.90;;;;;;5036727;28;20112;-52
2021/11/16 05:43:00;;;;;;;91.50;43.20;;;5.40;99.90;;;;;;5048365;28;20080;-52
2021/11/16 05:45:26;;;;;;;84.88;42.40;;;5.40;99.90;;;;;;5042838;28;20045;-51
2021/11/16 05:47:54;;;;;;;83.20;41.42;;;5.40;99.90;;;;;;5040337;28;20072;-48
2021/11/16 05:50:20;;;;;;;90.03;40.08;;;5.50;99.90;;;;;;5045818;28;20076;-49
2021/11/16 05:52:46;;;;;;;86.93;39.92;;;5.50;99.90;;;;;;5044885;28;20384;-49
2021/11/16 05:55:12;;;;;;;89.55;40.83;;;5.50;99.90;;;;;;5044492;28;20519;-51
2021/11/16 05:57:38;;;;;;;87.60;41.58;;;5.50;99.90;;;;;;5029750;28;20045;-47
2021/11/16 06:00:07;;;;;;;88.38;41.75;;;5.50;99.90;;;;;;5043372;28;20045;-53
2021/11/16 06:02:36;;;;;;;83.32;39.03;;;5.50;99.90;;;;;;5040780;28;20042;-52
2021/11/16 06:05:03;;;;;;;79.97;40.25;;;5.50;99.90;;;;;;5032351;28;20053;-51
2021/11/16 06:07:29;;;;;;;87.72;41.10;;;5.50;99.90;;;;;;5024731;28;20437;-52
2021/11/16 06:09:55;;;;;;;87.82;40.13;;;5.50;99.90;;;;;;5040463;28;20091;-52
2021/11/16 06:12:21;;;;;;;83.20;41.10;;;5.50;99.90;;;;;;5013627;28;20033;-49
2021/11/16 06:14:47;;;;;;;81.93;39.90;;;5.50;99.90;;;;;;5047776;28;20037;-51
2021/11/16 06:17:13;;;;;;;81.82;40.63;;;5.50;99.90;;;;;;5046826;28;20103;-48
2021/11/16 06:19:40;;;;;;;83.18;40.67;;;5.50;99.90;;;;;;5053437;28;20052;-50
2021/11/16 06:22:09;;;;;;;83.57;39.55;;;5.50;99.90;;;;;;5048041;28;20041;-52
2021/11/16 06:24:36;;;;;;;86.25;40.33;;;5.40;99.90;;;;;;5084799;28;20056;-52
2021/11/16 06:27:03;;;;;;;81.80;37.40;;;5.50;99.90;;;;;;5065471;28;20044;-48
2021/11/16 06:29:29;;;;;;;80.93;38.55;;;5.40;99.90;;;;;;5058448;28;20154;-48
2021/11/16 06:31:56;;;;;;;77.68;37.22;;;5.50;99.90;;;;;;5035717;28;20047;-47
2021/11/16 06:34:22;;;;;;;81.60;37.80;;;5.40;99.90;;;;;;5049193;28;20055;-51
2021/11/16 06:36:48;;;;;;;86.35;38.58;;;5.40;99.90;;;;;;5052225;28;20037;-48
2021/11/16 06:39:20;;;;;;;78.30;38.70;;;5.30;99.90;;;;;;5033418;28;20404;-51
2021/11/16 06:41:47;;;;;;;89.28;39.80;;;5.40;99.90;;;;;;5050012;28;20122;-48
2021/11/16 06:44:15;;;;;;;84.03;38.78;;;5.40;99.90;;;;;;5051686;28;20084;-51
2021/11/16 06:46:42;;;;;;;85.82;38.83;;;5.30;99.90;;;;;;5051849;28;20381;-50
2021/11/16 06:49:10;;;;;;;92.38;40.85;;;5.40;99.90;;;;;;5050657;28;20508;-52
2021/11/16 06:51:39;;;;;;;90.90;42.38;;;5.40;99.90;;;;;;5051837;28;20067;-51
2021/11/16 06:54:08;;;;;;;82.90;39.72;;;5.40;99.90;;;;;;5051979;28;20041;-56
2021/11/16 06:56:34;;;;;;;85.35;39.60;;;5.40;99.90;;;;;;5051740;28;20080;-51
2021/11/16 06:59:00;;;;;;;81.15;40.55;;;5.40;99.90;;;;;;5049849;28;20045;-53
2021/11/16 07:01:28;;;;;;;89.60;39.80;;;5.40;99.90;;;;;;5051701;28;20049;-52
2021/11/16 07:03:58;;;;;;;87.85;38.97;;;5.40;99.90;;;;;;5050971;28;20476;-51
2021/11/16 07:06:31;;;;;;;82.57;37.58;;;5.40;99.90;;;;;;5039092;28;20076;-52
2021/11/16 07:08:57;;;;;;;89.07;40.38;;;5.40;99.90;;;;;;5029974;28;20449;-51
2021/11/16 07:11:25;;;;;;;83.50;40.33;;;5.40;99.90;;;;;;5031660;28;20508;-53
2021/11/16 07:14:07;;;;;;;80.50;39.25;;;5.30;99.90;;;;;;5029559;28;20049;-51
2021/11/16 07:16:37;;;;;;;84.80;38.00;;;5.30;99.90;;;;;;5031220;28;20083;-50
2021/11/16 07:19:08;;;;;;;86.05;39.78;;;5.30;99.90;;;;;;5050947;28;20076;-48
2021/11/16 07:21:49;;;;;;;85.10;40.08;;;5.40;99.90;;;;;;5046444;28;20191;-52
2021/11/16 07:24:22;;;;;;;86.53;38.13;;;5.40;99.90;;;;;;5032011;28;20038;-52
2021/11/16 07:26:58;;;;;;;85.15;39.78;;;5.30;99.90;;;;;;5031383;28;20045;-50
2021/11/16 07:29:38;;;;;;;79.55;38.53;;;5.40;99.90;;;;;;5031205;28;20485;-51
2021/11/16 07:32:06;;;;;;;84.60;39.58;;;5.30;99.90;;;;;;5033052;28;20422;-50
2021/11/16 07:34:34;;;;;;;88.22;38.33;;;5.30;99.90;;;;;;5049044;28;20507;-48
2021/11/16 07:37:16;;;;;;;92.93;41.38;;;5.30;99.90;;;;;;5031757;28;20179;-54
2021/11/16 07:39:50;;;;;;;89.55;39.67;;;5.30;99.90;;;;;;5047217;28;20124;-48
2021/11/16 07:42:17;;;;;;;89.05;40.55;;;5.20;99.90;;;;;;5035623;28;20175;-53
2021/11/16 07:45:04;;;;;;;95.75;40.47;;;5.30;99.90;;;;;;5048198;28;20041;-49
2021/11/16 07:47:40;;;;;;;86.90;39.83;;;5.40;99.90;;;;;;5032106;28;20441;-51
2021/11/16 07:50:08;;;;;;;90.85;41.25;;;5.30;99.90;;;;;;5040028;28;20045;-48
2021/11/16 07:52:35;;;;;;;90.50;40.58;;;5.40;99.90;;;;;;5056590;28;20045;-52
2021/11/16 07:55:03;;;;;;;87.88;40.75;;;5.40;99.90;;;;;;5049737;28;20574;-50
2021/11/16 07:57:29;;;;;;;89.28;39.60;;;5.40;99.90;;;;;;5050216;28;20040;-47
2021/11/16 07:59:55;;;;;;;90.93;41.60;;;5.40;99.90;;;;;;5042735;28;20101;-47
2021/11/16 08:02:34;;;;;;;88.10;39.97;;;5.40;99.90;;;;;;5040483;28;20154;-48
2021/11/16 08:05:58;;;;;;;92.53;42.10;;;5.50;99.90;;;;;;5041083;28;20048;-48
2021/11/16 08:08:36;;;;;;;92.45;40.65;;;5.50;99.90;;;;;;5050579;28;20094;-51
2021/11/16 08:11:07;;;;;;;92.63;41.58;;;5.40;99.90;;;;;;5051383;28;20044;-52
2021/11/16 08:13:34;;;;;;;86.75;40.17;;;5.40;99.90;;;;;;5048089;28;20056;-50
2021/11/16 08:16:09;;;;;;;86.25;39.15;;;5.40;99.90;;;;;;5050179;28;20542;-48
2021/11/16 08:18:44;;;;;;;90.57;40.25;;;5.40;99.90;;;;;;5047437;28;20094;-47
2021/11/16 08:21:12;;;;;;;90.15;40.00;;;5.40;99.90;;;;;;5049813;28;20045;-51
2021/11/16 08:24:02;;;;;;;88.68;41.53;;;5.40;99.90;;;;;;5031877;28;20045;-52
2021/11/16 08:26:37;;;;;;;94.85;40.85;;;5.40;99.90;;;;;;5047569;28;20052;-52
2021/11/16 08:29:04;;;;;;;88.40;40.80;;;5.40;99.90;;;;;;5046222;28;20125;-51
2021/11/16 08:31:38;;;;;;;87.50;40.97;;;5.50;99.90;;;;;;5046867;28;20110;-52
2021/11/16 08:34:06;;;;;;;80.82;39.47;;;5.40;99.90;;;;;;5065321;28;20127;-53
2021/11/16 08:36:47;;;;;;;92.78;40.10;;;5.40;99.90;;;;;;5068100;28;20134;-53
2021/11/16 08:39:15;;;;;;;88.60;40.45;;;5.40;99.90;;;;;;5053297;28;20048;-50
2021/11/16 08:41:42;;;;;;;88.78;40.70;;;5.50;99.90;;;;;;5027994;28;20140;-56
2021/11/16 08:44:12;;;;;;;87.22;41.03;;;5.50;99.90;;;;;;5048153;28;20041;-50
2021/11/16 08:46:38;;;;;;;91.28;39.63;;;5.50;99.90;;;;;;5041785;28;20044;-51
2021/11/16 08:49:05;;;;;;;84.43;37.85;;;5.40;99.90;;;;;;5045829;28;20423;-49
2021/11/16 08:51:44;;;;;;;76.40;36.13;;;5.40;99.90;;;;;;5048786;28;20033;-49
2021/11/16 08:54:11;;;;;;;86.32;39.65;;;5.40;99.90;;;;;;5049899;28;20472;-56
2021/11/16 08:56:40;;;;;;;83.45;36.90;;;5.50;99.90;;;;;;5052023;28;20049;-49
2021/11/16 08:59:16;;;;;;;87.20;40.15;;;5.50;99.90;;;;;;5047421;28;20044;-50
2021/11/16 09:02:03;;;;;;;83.50;38.20;;;5.50;99.90;;;;;;5049825;28;20056;-53
2021/11/16 09:04:33;;;;;;;87.53;38.13;;;5.50;99.90;;;;;;5059535;28;20049;-53
2021/11/16 09:07:00;;;;;;;90.72;38.60;;;5.50;99.90;;;;;;5048531;28;20048;-52
2021/11/16 09:09:27;;;;;;;78.80;36.42;;;5.50;99.90;;;;;;5048566;28;20124;-50
2021/11/16 09:11:58;;;;;;;74.82;35.85;;;5.50;99.90;;;;;;5033314;28;20036;-52
2021/11/16 09:14:25;;;;;;;81.47;36.22;;;5.50;99.90;;;;;;5047016;28;20045;-52
2021/11/16 09:16:51;;;;;;;79.35;36.28;;;5.50;99.90;;;;;;5048607;28;20041;-53
2021/11/16 09:19:27;;;;;;;84.65;39.00;;;5.50;99.90;;;;;;5047493;28;20083;-51
2021/11/16 09:21:54;;;;;;;80.88;36.70;;;5.50;99.90;;;;;;5043976;28;20447;-52
2021/11/16 09:24:28;;;;;;;86.85;37.33;;;5.50;99.90;;;;;;5047440;28;20036;-53
2021/11/16 09:27:10;;;;;;;80.85;37.67;;;5.40;99.90;;;;;;5046017;28;20420;-54
2021/11/16 09:29:38;;;;;;;83.78;39.60;;;5.40;99.90;;;;;;5029907;28;20110;-54
2021/11/16 09:32:11;;;;;;;85.60;38.20;;;5.40;99.90;;;;;;5048823;28;20128;-53
2021/11/16 09:34:58;;;;;;;98.00;39.85;;;5.50;99.90;;;;;;5048631;28;20064;-52
2021/11/16 09:37:27;;;;;;;93.88;39.80;;;5.40;99.90;;;;;;5049033;28;20433;-53
2021/11/16 09:39:57;;;;;;;88.25;38.92;;;5.50;99.90;;;;;;5045969;28;20496;-52
2021/11/16 09:42:36;;;;;;;76.47;36.67;;;5.40;99.90;;;;;;5047894;28;20045;-52
2021/11/16 09:45:12;;;;;;;77.43;35.58;;;5.40;99.90;;;;;;5051219;28;20084;-53
2021/11/16 09:47:41;;;;;;;87.40;36.13;;;5.40;99.90;;;;;;5053102;28;20083;-53
2021/11/16 09:50:13;;;;;;;86.38;37.63;;;5.40;99.90;;;;;;5064390;28;20468;-55
2021/11/16 09:52:43;;;;;;;80.72;37.58;;;5.40;99.90;;;;;;5046677;28;20139;-51
2021/11/16 09:55:20;;;;;;;85.60;39.63;;;5.40;99.90;;;;;;5046905;28;20040;-52
2021/11/16 09:57:53;;;;;;;83.38;38.78;;;5.40;99.90;;;;;;5047427;28;20500;-51
2021/11/16 10:00:48;;;;;;;92.18;40.30;;;5.40;99.90;;;;;;5057876;28;20514;-56
2021/11/16 10:03:21;;;;;;;82.05;39.47;;;5.40;99.90;;;;;;5009154;28;20061;-51
2021/11/16 10:05:54;;;;;;;89.22;38.05;;;5.40;99.90;;;;;;4986864;28;20065;-51
2021/11/16 10:08:22;;;;;;;89.20;40.97;;;5.40;99.90;;;;;;4988529;28;20044;-52
2021/11/16 10:10:52;;;;;;;87.00;37.90;;;5.40;99.90;;;;;;5005520;28;20049;-52
2021/11/16 10:13:26;;;;;;;84.00;40.30;;;5.40;99.90;;;;;;5005975;28;20042;-52
2021/11/16 10:15:55;;;;;;;81.75;38.22;;;5.40;99.90;;;;;;5007088;28;20030;-50
2021/11/16 10:18:23;;;;;;;80.93;37.03;;;5.30;99.90;;;;;;5019672;28;20041;-53
2021/11/16 10:20:54;;;;;;;80.47;37.88;;;5.40;99.90;;;;;;5028286;28;20049;-53
2021/11/16 10:23:36;;;;;;;86.90;40.47;;;5.40;99.90;;;;;;5029232;28;20120;-54
2021/11/16 10:26:03;;;;;;;86.68;39.25;;;5.40;99.90;;;;;;5026327;28;20048;-53
2021/11/16 10:28:34;;;;;;;91.47;39.35;;;5.40;99.90;;;;;;5008486;28;20160;-51
2021/11/16 10:31:01;;;;;;;89.30;40.90;;;5.50;99.90;;;;;;4975961;28;20077;-53
2021/11/16 10:33:39;;;;;;;82.75;37.53;;;5.50;99.90;;;;;;5008476;28;20100;-51
2021/11/16 10:36:15;;;;;;;84.22;38.55;;;5.50;99.90;;;;;;5008723;28;20049;-51
2021/11/16 10:38:45;;;;;;;75.03;35.83;;;5.50;99.90;;;;;;4994403;28;20056;-58
2021/11/16 10:41:23;;;;;;;87.78;40.00;;;5.50;99.90;;;;;;5048532;28;20052;-50
2021/11/16 10:44:00;;;;;;;80.22;38.35;;;5.50;99.90;;;;;;5051436;28;20048;-49
2021/11/16 10:46:29;;;;;;;86.85;39.28;;;5.50;99.90;;;;;;5050013;28;20076;-51
2021/11/16 10:48:58;;;;;;;85.25;38.03;;;5.60;99.90;;;;;;5051608;28;20279;-54
2021/11/16 10:51:32;;;;;;;82.05;38.78;;;5.50;99.90;;;;;;5049737;28;20061;-48
2021/11/16 10:53:59;;;;;;;72.82;34.95;;;5.60;99.90;;;;;;5050952;28;20072;-54
2021/11/16 10:56:28;;;;;;;72.80;32.60;;;5.60;99.90;;;;;;5050956;28;20037;-57
2021/11/16 10:59:02;;;;;;;64.32;31.20;;;5.60;99.90;;;;;;5049359;28;20137;-55
2021/11/16 11:01:28;;;;;;;65.78;31.92;;;5.60;99.90;;;;;;5046383;28;20045;-56
2021/11/16 11:03:56;;;;;;;64.80;31.38;;;5.60;99.90;;;;;;5044765;28;20065;-56
2021/11/16 11:06:33;;;;;;;62.53;30.98;;;5.60;99.90;;;;;;5032825;28;20360;-56
2021/11/16 11:09:03;;;;;;;71.97;32.33;;;5.60;99.90;;;;;;5050600;28;20405;-55
2021/11/16 11:11:51;;;;;;;71.97;33.15;;;5.60;99.90;;;;;;5058493;28;20115;-49
2021/11/16 11:14:21;;;;;;;71.32;33.65;;;5.60;99.90;;;;;;5051772;28;20076;-55
2021/11/16 11:16:59;;;;;;;73.25;33.50;;;5.50;99.90;;;;;;5014409;28;20106;-47
2021/11/16 11:19:40;;;;;;;68.57;32.90;;;5.50;99.90;;;;;;5048669;28;20107;-56
2021/11/16 11:22:26;;;;;;;67.07;31.93;;;5.60;99.90;;;;;;5050054;28;20519;-56
2021/11/16 11:27:40;;;;;;;71.45;34.35;;;5.60;99.90;;;;;;5047759;28;20052;-56
2021/11/16 11:30:13;;;;;;;66.93;33.00;;;5.60;99.90;;;;;;5048831;28;20072;-55
2021/11/16 11:32:41;;;;;;;65.25;32.55;;;5.60;99.90;;;;;;5051496;28;20032;-55
2021/11/16 11:35:15;;;;;;;69.07;32.10;;;5.60;99.90;;;;;;5050260;28;20061;-56
2021/11/16 11:37:47;;;;;;;67.40;33.55;;;5.60;99.90;;;;;;5050339;28;20396;-55
2021/11/16 11:40:18;;;;;;;;;;;5.60;99.90;;;;;;5048705;28;20531;-48
2021/11/16 11:42:44;;;;;;;68.50;33.28;;;5.60;99.90;;;;;;5049032;28;20375;-56
2021/11/16 11:48:17;;;;;;;67.90;33.47;;;5.60;99.90;;;;;;5058394;28;20060;-51
2021/11/16 11:50:46;;;;;;;72.47;34.83;;;5.60;99.90;;;;;;5068400;28;20048;-50
2021/11/16 11:53:22;;;;;;;78.00;36.42;;;5.60;99.90;;;;;;5050515;28;20124;-51
2021/11/16 11:55:51;;;;;;;68.75;34.70;;;5.60;99.90;;;;;;5050168;28;20076;-53
2021/11/16 11:58:19;;;;;;;69.90;33.50;;;5.60;99.90;;;;;;5048008;28;20067;-56
2021/11/16 12:00:51;;;;;;;75.00;37.47;;;5.60;99.90;;;;;;5029581;28;20049;-54
2021/11/16 12:03:19;;;;;;;68.20;32.85;;;5.60;99.90;;;;;;5028025;28;20056;-53
2021/11/16 12:05:47;;;;;;;70.88;34.22;;;5.70;99.90;;;;;;5049299;28;20048;-52
2021/11/16 12:08:15;;;;;;;76.18;35.08;;;5.60;99.90;;;;;;5048578;28;20049;-52
2021/11/16 12:10:44;;;;;;;76.15;35.90;;;5.60;99.90;;;;;;5047162;28;20041;-56
2021/11/16 12:13:12;;;;;;;73.78;34.50;;;5.50;99.90;;;;;;5049380;28;20061;-55
2021/11/16 12:15:47;;;;;;;67.80;33.67;;;5.50;99.90;;;;;;5030643;28;20120;-56
2021/11/16 12:18:14;;;;;;;68.82;35.60;;;5.50;99.90;;;;;;5064027;28;20041;-57
2021/11/16 12:20:40;;;;;;;83.88;39.65;;;5.60;99.90;;;;;;5046181;28;20068;-57
2021/11/16 12:23:14;;;;;;;79.30;37.10;;;5.60;99.90;;;;;;5045501;28;20474;-54
2021/11/16 12:25:45;;;;;;;76.90;37.92;;;5.60;99.90;;;;;;5048097;28;20072;-53
2021/11/16 12:28:32;;;;;;;72.18;35.25;;;5.60;99.90;;;;;;5030300;28;20052;-48
2021/11/16 12:31:00;;;;;;;79.82;37.53;;;5.60;99.90;;;;;;5046992;28;20542;-55
2021/11/16 12:33:46;;;;;;;75.57;35.97;;;5.60;99.90;;;;;;5048305;28;20451;-55
2021/11/16 12:36:36;;;;;;;74.20;36.95;;;5.60;99.90;;;;;;5046444;28;20069;-53
2021/11/16 12:39:12;;;;;;;77.82;38.17;;;5.60;99.90;;;;;;4986012;28;20729;-55
2021/11/16 12:41:40;;;;;;;69.97;34.53;;;5.60;99.90;;;;;;5004807;28;20080;-55
2021/11/16 12:44:12;;;;;;;72.88;36.42;;;5.50;99.90;;;;;;5005553;28;20433;-53
2021/11/16 12:46:42;;;;;;;77.03;36.65;;;5.50;99.90;;;;;;5006744;28;20080;-48
2021/11/16 12:49:31;;;;;;;75.32;38.17;;;5.60;99.90;;;;;;5007522;28;20053;-53
2021/11/16 12:51:59;;;;;;;79.78;38.60;;;5.60;99.90;;;;;;4981611;28;20150;-54
2021/11/16 12:54:30;;;;;;;75.45;36.80;;;5.60;99.90;;;;;;4987270;28;20086;-56
2021/11/16 12:56:56;;;;;;;78.15;38.28;;;5.60;99.90;;;;;;4985017;28;20434;-57
2021/11/16 12:59:43;;;;;;;78.32;37.42;;;5.60;99.90;;;;;;4952055;28;20058;-50
2021/11/16 13:02:41;;;;;;;81.25;37.72;;;5.60;99.90;;;;;;4942575;28;20051;-58
2021/11/16 13:05:10;;;;;;;76.43;37.55;;;5.70;99.90;;;;;;4949927;29;20047;-60
2021/11/16 13:07:52;;;;;;;55.00;28.83;;;5.70;99.90;;;;;;4964692;28;20050;-51
2021/11/16 13:10:23;;;;;;;61.15;30.33;;;5.70;99.90;;;;;;4968368;28;20046;-50
2021/11/16 13:12:58;;;;;;;52.00;27.27;;;5.70;99.90;;;;;;4967157;28;20081;-51